Time;durP1;ratioP1;P1;durP2;ratioP2;P2;SDS_P1;SDS_P2;PMS_P1;PMS_P2;Temp;Humidity;BMP_temperature;BMP_pressure;BME280_temperature;BME280_humidity;BME280_pressure;Samples;Min_cycle;Max_cycle;Signal;HPM_P1;HPM_P2
2021/05/24 00:00:21;;;;;;;1.13;0.70;;;10.60;99.80;;;;;;5055952;28;20815;-78
2021/05/24 00:02:48;;;;;;;1.53;0.80;;;10.50;99.60;;;;;;5055938;28;20434;-78
2021/05/24 00:05:17;;;;;;;0.70;0.70;;;10.50;99.90;;;;;;5056262;28;20546;-78
2021/05/24 00:07:43;;;;;;;0.90;0.90;;;10.50;99.90;;;;;;5055952;28;20453;-78
2021/05/24 00:10:12;;;;;;;0.80;0.80;;;10.40;99.90;;;;;;5056077;28;20480;-78
2021/05/24 00:12:46;;;;;;;1.53;1.20;;;10.30;99.90;;;;;;5055694;28;20967;-78
2021/05/24 00:15:13;;;;;;;0.90;0.90;;;10.30;99.90;;;;;;5055718;28;20465;-78
2021/05/24 00:17:40;;;;;;;1.07;0.73;;;10.20;99.90;;;;;;5055922;28;20480;-78
2021/05/24 00:20:09;;;;;;;1.10;1.03;;;10.10;99.90;;;;;;5055798;28;20465;-78
2021/05/24 00:22:35;;;;;;;1.63;1.20;;;10.00;99.90;;;;;;5055506;28;20453;-78
2021/05/24 00:25:01;;;;;;;1.67;1.20;;;9.90;99.90;;;;;;5055773;28;20442;-78
2021/05/24 00:27:28;;;;;;;2.00;1.40;;;9.80;99.90;;;;;;5055713;28;20499;-78
2021/05/24 00:29:54;;;;;;;2.50;1.40;;;9.70;99.90;;;;;;5055598;28;20515;-78
2021/05/24 00:32:20;;;;;;;2.23;0.93;;;9.70;99.90;;;;;;5055283;28;20485;-78
2021/05/24 00:34:47;;;;;;;0.90;0.90;;;9.50;99.90;;;;;;5055292;28;20477;-78
2021/05/24 00:37:14;;;;;;;1.43;0.90;;;9.50;99.90;;;;;;5055555;28;20454;-78
2021/05/24 00:39:40;;;;;;;1.20;1.10;;;9.40;99.90;;;;;;5054884;28;20485;-78
2021/05/24 00:42:06;;;;;;;1.40;1.10;;;9.40;99.90;;;;;;5055475;28;20435;-78
2021/05/24 00:44:33;;;;;;;1.37;1.10;;;9.40;99.90;;;;;;5055395;28;20450;-78
2021/05/24 00:46:59;;;;;;;2.37;1.30;;;9.30;99.90;;;;;;5055764;28;20453;-78
2021/05/24 00:49:27;;;;;;;1.20;1.00;;;9.30;99.90;;;;;;5055044;28;21022;-78
2021/05/24 00:51:55;;;;;;;1.60;1.50;;;9.20;99.90;;;;;;5055272;28;20450;-78
2021/05/24 00:54:23;;;;;;;1.30;1.20;;;9.10;99.90;;;;;;5055080;28;20470;-78
2021/05/24 00:56:49;;;;;;;1.80;1.17;;;9.00;99.90;;;;;;5054842;28;20449;-78
2021/05/24 00:59:16;;;;;;;1.40;1.30;;;8.90;99.90;;;;;;5055069;28;20457;-78
2021/05/24 01:01:43;;;;;;;4.23;1.20;;;8.90;99.90;;;;;;5055028;28;20449;-78
2021/05/24 01:04:10;;;;;;;2.00;1.37;;;8.80;99.90;;;;;;5055060;28;20441;-78
2021/05/24 01:06:36;;;;;;;1.93;1.10;;;8.80;99.90;;;;;;5054979;28;20461;-78
2021/05/24 01:09:04;;;;;;;1.20;1.10;;;8.80;99.90;;;;;;5054514;28;20937;-78
2021/05/24 01:11:30;;;;;;;1.00;1.00;;;8.80;99.90;;;;;;5054927;28;20430;-78
2021/05/24 01:13:57;;;;;;;0.87;0.87;;;8.90;99.90;;;;;;5054781;28;20446;-78
2021/05/24 01:16:23;;;;;;;0.80;0.80;;;8.90;99.90;;;;;;5054507;28;20937;-78
2021/05/24 01:18:49;;;;;;;2.60;1.10;;;8.90;99.90;;;;;;5054501;28;20780;-78
2021/05/24 01:21:18;;;;;;;1.20;1.10;;;8.80;99.90;;;;;;5054631;28;20466;-78
2021/05/24 01:23:45;;;;;;;1.33;1.10;;;8.80;99.90;;;;;;5054327;28;20949;-78
2021/05/24 01:26:12;;;;;;;2.00;1.10;;;8.80;99.90;;;;;;5054287;28;20953;-78
2021/05/24 01:28:39;;;;;;;1.20;1.03;;;8.80;99.90;;;;;;5054302;28;20452;-78
2021/05/24 01:31:06;;;;;;;0.90;0.90;;;8.70;99.90;;;;;;5054206;28;20554;-78
2021/05/24 01:33:35;;;;;;;1.80;1.10;;;8.70;99.90;;;;;;5054468;28;20918;-78
2021/05/24 01:36:03;;;;;;;0.80;0.80;;;8.70;99.90;;;;;;5054359;28;20486;-78
2021/05/24 01:38:31;;;;;;;1.00;0.80;;;8.70;99.90;;;;;;5054327;28;20449;-78
2021/05/24 01:40:58;;;;;;;1.83;1.20;;;8.70;99.90;;;;;;5054253;28;20474;-78
2021/05/24 01:43:27;;;;;;;0.90;0.90;;;8.60;99.90;;;;;;5054267;28;20472;-78
2021/05/24 01:45:53;;;;;;;1.00;0.90;;;8.60;99.90;;;;;;5054223;28;20446;-78
2021/05/24 01:48:20;;;;;;;2.20;0.90;;;8.60;99.90;;;;;;5053944;28;20812;-78
2021/05/24 01:50:46;;;;;;;1.27;1.17;;;8.50;99.90;;;;;;5053842;28;20507;-78
2021/05/24 01:53:13;;;;;;;1.10;1.00;;;8.50;99.90;;;;;;5053560;28;20449;-78
2021/05/24 01:55:41;;;;;;;1.43;1.20;;;8.50;99.90;;;;;;5053991;28;20488;-78
2021/05/24 01:58:08;;;;;;;3.10;0.97;;;8.50;99.90;;;;;;5054038;28;20945;-78
2021/05/24 02:00:35;;;;;;;1.10;1.00;;;8.50;99.90;;;;;;5053889;28;20469;-78
2021/05/24 02:03:01;;;;;;;2.80;1.00;;;8.50;99.90;;;;;;5053588;28;20941;-78
2021/05/24 02:05:29;;;;;;;1.07;1.07;;;8.50;99.90;;;;;;5053634;28;20799;-78
2021/05/24 02:07:57;;;;;;;1.13;0.77;;;8.50;99.90;;;;;;5054388;28;20446;-78
2021/05/24 02:10:26;;;;;;;1.07;1.00;;;8.50;99.90;;;;;;5053548;28;20454;-78
2021/05/24 02:12:53;;;;;;;1.40;1.30;;;8.40;99.90;;;;;;5053517;28;20442;-77
2021/05/24 02:15:21;;;;;;;1.30;1.10;;;8.40;99.90;;;;;;5053329;28;20539;-78
2021/05/24 02:17:48;;;;;;;2.40;1.20;;;8.30;99.90;;;;;;5053713;28;20435;-78
2021/05/24 02:20:18;;;;;;;1.43;1.33;;;8.30;99.90;;;;;;5053542;28;20477;-78
2021/05/24 02:22:44;;;;;;;1.33;1.20;;;8.30;99.90;;;;;;5053551;28;20441;-78
2021/05/24 02:25:12;;;;;;;1.20;1.10;;;8.20;99.90;;;;;;5053280;28;20960;-78
2021/05/24 02:27:38;;;;;;;1.40;1.30;;;8.20;99.90;;;;;;5053547;28;20856;-78
2021/05/24 02:30:07;;;;;;;2.40;1.37;;;8.20;99.90;;;;;;5053284;28;20988;-78
2021/05/24 02:32:34;;;;;;;1.53;1.43;;;8.20;99.90;;;;;;5053188;28;20992;-78
2021/05/24 02:35:00;;;;;;;1.53;1.43;;;8.20;99.90;;;;;;5053095;28;21027;-78
2021/05/24 02:37:26;;;;;;;3.37;2.00;;;8.20;99.90;;;;;;5053141;28;20460;-83
2021/05/24 02:39:53;;;;;;;1.80;1.70;;;8.20;99.90;;;;;;5053253;28;20477;-83
2021/05/24 02:42:20;;;;;;;2.27;2.17;;;8.20;99.90;;;;;;5054145;28;20446;-83
2021/05/24 02:44:46;;;;;;;2.10;1.90;;;8.20;99.90;;;;;;5053322;28;20453;-82
2021/05/24 02:47:13;;;;;;;1.80;1.70;;;8.20;99.90;;;;;;5053259;28;20446;-78
2021/05/24 02:49:39;;;;;;;2.70;1.80;;;8.20;99.90;;;;;;5053199;28;20469;-78
2021/05/24 02:52:06;;;;;;;2.13;1.90;;;8.30;99.90;;;;;;5052932;28;20452;-79
2021/05/24 02:54:32;;;;;;;1.27;1.20;;;8.30;99.90;;;;;;5053135;28;20843;-82
2021/05/24 02:56:59;;;;;;;1.77;1.60;;;8.30;99.90;;;;;;5053217;28;20450;-82
2021/05/24 02:59:25;;;;;;;2.90;1.67;;;8.30;99.90;;;;;;5053112;28;20470;-78
2021/05/24 03:01:51;;;;;;;1.37;1.27;;;8.30;99.90;;;;;;5053155;28;20499;-78
2021/05/24 03:04:25;;;;;;;2.50;1.83;;;8.40;99.90;;;;;;5054716;28;20449;-78
2021/05/24 03:06:51;;;;;;;1.77;1.67;;;8.40;99.90;;;;;;5057247;28;20438;-78
2021/05/24 03:09:17;;;;;;;2.07;1.40;;;8.40;99.90;;;;;;5057117;28;20473;-83
2021/05/24 03:11:43;;;;;;;2.03;1.80;;;8.40;99.90;;;;;;5057031;28;20484;-83
2021/05/24 03:14:10;;;;;;;1.50;1.40;;;8.40;99.90;;;;;;5056785;28;20440;-78
2021/05/24 03:16:37;;;;;;;1.60;1.50;;;8.30;99.90;;;;;;5057039;28;20445;-78
2021/05/24 03:19:04;;;;;;;3.30;1.60;;;8.30;99.90;;;;;;5057236;28;20441;-78
2021/05/24 03:21:31;;;;;;;2.67;1.80;;;8.30;99.90;;;;;;5057550;28;20441;-78
2021/05/24 03:23:58;;;;;;;1.90;1.80;;;8.30;99.90;;;;;;5056602;28;20820;-78
2021/05/24 03:26:24;;;;;;;1.80;1.70;;;8.30;99.90;;;;;;5056881;28;20449;-78
2021/05/24 03:28:50;;;;;;;2.07;1.97;;;8.30;99.90;;;;;;5056837;28;20453;-78
2021/05/24 03:31:16;;;;;;;2.10;1.90;;;8.30;99.90;;;;;;5056492;28;20481;-78
2021/05/24 03:33:43;;;;;;;2.30;2.10;;;8.30;99.90;;;;;;5056468;28;20428;-78
2021/05/24 03:36:10;;;;;;;2.10;2.00;;;8.30;99.90;;;;;;5056681;28;20900;-81
2021/05/24 03:38:37;;;;;;;2.00;1.90;;;8.30;99.90;;;;;;5056393;28;20452;-82
2021/05/24 03:41:04;;;;;;;2.30;1.77;;;8.30;99.90;;;;;;5056592;28;20461;-82
2021/05/24 03:43:31;;;;;;;3.00;1.90;;;8.30;99.90;;;;;;5056668;28;20454;-82
2021/05/24 03:45:58;;;;;;;2.73;2.30;;;8.30;99.90;;;;;;5056580;28;20503;-83
2021/05/24 03:48:24;;;;;;;3.27;1.73;;;8.30;99.90;;;;;;5056440;28;20454;-78
2021/05/24 03:50:51;;;;;;;1.60;1.50;;;8.20;99.90;;;;;;5056444;28;20836;-83
2021/05/24 03:53:17;;;;;;;2.07;1.60;;;8.20;99.90;;;;;;5056354;28;20449;-83
2021/05/24 03:55:44;;;;;;;1.40;1.30;;;8.20;99.90;;;;;;5056815;28;20481;-78
2021/05/24 03:58:10;;;;;;;2.03;1.93;;;8.20;99.90;;;;;;5056042;28;20452;-78
2021/05/24 04:00:37;;;;;;;1.67;1.57;;;8.10;99.90;;;;;;5056581;28;20466;-82
2021/05/24 04:03:03;;;;;;;1.73;1.40;;;8.10;99.90;;;;;;5057041;28;20445;-78
2021/05/24 04:05:31;;;;;;;2.70;1.40;;;8.20;99.90;;;;;;5056684;28;20453;-78
2021/05/24 04:07:59;;;;;;;1.40;1.37;;;8.20;99.90;;;;;;5055798;28;21056;-78
2021/05/24 04:10:29;;;;;;;1.90;1.70;;;8.20;99.90;;;;;;5056510;28;21078;-81
2021/05/24 04:12:56;;;;;;;2.10;2.00;;;8.20;99.90;;;;;;5057629;28;20453;-81
2021/05/24 04:15:22;;;;;;;2.97;1.60;;;8.20;99.90;;;;;;5056934;28;20481;-81
2021/05/24 04:17:51;;;;;;;3.73;1.50;;;8.30;99.90;;;;;;5057813;28;20496;-81
2021/05/24 04:20:18;;;;;;;1.67;1.57;;;8.30;99.90;;;;;;5056038;28;20834;-80
2021/05/24 04:22:45;;;;;;;1.93;1.83;;;8.20;99.90;;;;;;5055848;28;20448;-81
2021/05/24 04:25:12;;;;;;;1.80;1.40;;;8.20;99.90;;;;;;5055642;28;20464;-78
2021/05/24 04:27:38;;;;;;;3.10;1.80;;;8.20;99.90;;;;;;5055503;28;20834;-78
2021/05/24 04:30:07;;;;;;;2.07;1.20;;;8.20;99.90;;;;;;5055639;28;20470;-78
2021/05/24 04:32:33;;;;;;;2.03;1.37;;;8.20;99.90;;;;;;5055212;28;20496;-78
2021/05/24 04:35:00;;;;;;;1.63;1.53;;;8.30;99.90;;;;;;5055248;28;20481;-77
2021/05/24 04:37:26;;;;;;;1.73;1.57;;;8.30;99.90;;;;;;5055311;28;20846;-74
2021/05/24 04:39:53;;;;;;;1.73;1.63;;;8.30;99.90;;;;;;5055392;28;20465;-84
2021/05/24 04:42:21;;;;;;;2.93;1.27;;;8.40;99.90;;;;;;5055666;28;20455;-85
2021/05/24 04:44:47;;;;;;;1.40;1.30;;;8.40;99.90;;;;;;5055364;28;20445;-82
2021/05/24 04:47:14;;;;;;;1.73;1.33;;;8.40;99.90;;;;;;5055422;28;20488;-79
2021/05/24 04:49:40;;;;;;;1.70;1.57;;;8.50;99.90;;;;;;5055247;28;20500;-77
2021/05/24 04:52:07;;;;;;;1.57;1.37;;;8.40;99.90;;;;;;5055278;28;20441;-79
2021/05/24 04:54:33;;;;;;;2.37;1.93;;;8.40;99.90;;;;;;5054813;28;20473;-77
2021/05/24 04:56:59;;;;;;;3.40;1.70;;;8.40;99.90;;;;;;5055177;28;20450;-77
2021/05/24 04:59:25;;;;;;;1.70;1.60;;;8.50;99.90;;;;;;5055137;28;20469;-77
2021/05/24 05:01:51;;;;;;;1.87;1.73;;;8.50;99.90;;;;;;5054809;28;20479;-77
2021/05/24 05:04:19;;;;;;;1.67;1.57;;;8.50;99.90;;;;;;5054903;28;20454;-77
2021/05/24 05:06:45;;;;;;;1.77;1.60;;;8.60;99.90;;;;;;5055018;28;20456;-77
2021/05/24 05:09:11;;;;;;;2.07;1.97;;;8.60;99.90;;;;;;5054882;28;20452;-77
2021/05/24 05:11:38;;;;;;;3.37;1.30;;;8.70;99.90;;;;;;5054671;28;20953;-77
2021/05/24 05:14:04;;;;;;;1.93;1.60;;;8.70;99.90;;;;;;5054888;28;20804;-77
2021/05/24 05:16:31;;;;;;;1.80;1.70;;;8.80;99.90;;;;;;5054754;28;20497;-81
2021/05/24 05:18:57;;;;;;;3.67;1.63;;;8.80;99.90;;;;;;5054771;28;20479;-77
2021/05/24 05:21:24;;;;;;;1.70;1.50;;;8.90;99.90;;;;;;5054771;28;20449;-80
2021/05/24 05:23:51;;;;;;;2.03;1.93;;;9.00;99.90;;;;;;5054342;28;20472;-81
2021/05/24 05:26:17;;;;;;;1.30;1.27;;;9.10;99.90;;;;;;5053513;28;20449;-78
2021/05/24 05:28:43;;;;;;;2.10;1.80;;;9.20;99.90;;;;;;5054536;28;20457;-78
2021/05/24 05:31:11;;;;;;;1.80;1.70;;;9.30;99.90;;;;;;5054236;28;20473;-81
2021/05/24 05:33:37;;;;;;;2.13;1.30;;;9.40;99.90;;;;;;5054487;28;20446;-77
2021/05/24 05:36:04;;;;;;;3.10;1.53;;;9.40;99.90;;;;;;5054639;28;20470;-77
2021/05/24 05:38:33;;;;;;;1.47;1.23;;;9.50;99.90;;;;;;5054619;28;20450;-77
2021/05/24 05:40:59;;;;;;;1.90;1.70;;;9.50;99.90;;;;;;5054572;28;20457;-77
2021/05/24 05:43:26;;;;;;;1.50;1.40;;;9.60;99.90;;;;;;5054541;28;20441;-77
2021/05/24 05:45:52;;;;;;;1.37;1.20;;;9.60;99.90;;;;;;5055115;28;20446;-81
2021/05/24 05:48:19;;;;;;;1.60;1.50;;;9.70;99.90;;;;;;5054222;28;20453;-81
2021/05/24 05:50:46;;;;;;;1.53;1.43;;;9.70;99.90;;;;;;5054093;28;20466;-78
2021/05/24 05:53:12;;;;;;;1.60;1.50;;;9.70;99.90;;;;;;5054111;28;20460;-81
2021/05/24 05:55:39;;;;;;;1.83;1.73;;;9.70;99.90;;;;;;5053786;28;20478;-81
2021/05/24 05:58:05;;;;;;;2.33;1.60;;;9.80;99.90;;;;;;5053826;28;20442;-79
2021/05/24 06:00:31;;;;;;;2.20;1.70;;;9.80;99.90;;;;;;5053921;28;20461;-78
2021/05/24 06:02:58;;;;;;;2.53;1.77;;;9.90;99.90;;;;;;5053934;28;20505;-80
2021/05/24 06:05:24;;;;;;;2.63;2.43;;;9.90;99.90;;;;;;5053621;28;20995;-80
2021/05/24 06:07:50;;;;;;;2.20;2.10;;;10.00;99.90;;;;;;5053528;28;20811;-81
2021/05/24 06:10:17;;;;;;;4.80;2.57;;;10.00;99.90;;;;;;5053791;28;20476;-80
2021/05/24 06:12:46;;;;;;;1.90;1.80;;;10.10;99.90;;;;;;5053497;28;20834;-80
2021/05/24 06:15:16;;;;;;;2.60;2.40;;;10.10;99.90;;;;;;5053722;28;20517;-78
2021/05/24 06:17:42;;;;;;;2.10;1.90;;;10.20;99.90;;;;;;5053348;28;20975;-78
2021/05/24 06:20:09;;;;;;;1.77;1.67;;;10.40;99.90;;;;;;5053910;28;20512;-77
2021/05/24 06:22:36;;;;;;;2.03;1.47;;;10.60;99.90;;;;;;5053587;28;20454;-77
2021/05/24 06:25:02;;;;;;;2.83;1.80;;;10.80;99.90;;;;;;5053321;28;20441;-77
2021/05/24 06:27:29;;;;;;;1.57;1.47;;;11.00;99.90;;;;;;5053567;28;20462;-77
2021/05/24 06:29:56;;;;;;;1.90;1.70;;;11.20;99.90;;;;;;5053439;28;20465;-77
2021/05/24 06:32:22;;;;;;;2.07;1.97;;;11.30;99.90;;;;;;5053138;28;21011;-77
2021/05/24 06:34:49;;;;;;;2.47;1.60;;;11.30;99.90;;;;;;5053382;28;20485;-80
2021/05/24 06:37:15;;;;;;;1.40;1.30;;;11.40;99.90;;;;;;5053309;28;20566;-81
2021/05/24 06:39:42;;;;;;;2.30;2.20;;;11.40;99.90;;;;;;5052984;28;20461;-81
2021/05/24 06:42:08;;;;;;;1.27;1.17;;;11.60;99.90;;;;;;5053423;28;20447;-81
2021/05/24 06:44:35;;;;;;;2.90;2.00;;;11.60;99.90;;;;;;5053291;28;20445;-77
2021/05/24 06:47:02;;;;;;;1.77;1.67;;;11.70;99.90;;;;;;5053326;28;20458;-77
2021/05/24 06:49:28;;;;;;;1.53;1.43;;;11.80;99.90;;;;;;5053183;28;20465;-77
2021/05/24 06:51:54;;;;;;;1.90;1.80;;;11.90;99.90;;;;;;5052968;28;20445;-81
2021/05/24 06:54:21;;;;;;;1.90;1.80;;;12.10;99.90;;;;;;5052855;28;20476;-81
2021/05/24 06:56:47;;;;;;;1.57;1.47;;;12.10;99.90;;;;;;5053986;28;20437;-81
2021/05/24 06:59:13;;;;;;;1.70;1.60;;;12.20;99.90;;;;;;5053117;28;20476;-77
2021/05/24 07:01:40;;;;;;;2.20;1.60;;;12.30;99.90;;;;;;5052990;28;21022;-77
2021/05/24 07:04:07;;;;;;;2.10;1.90;;;12.40;99.90;;;;;;5052864;28;20434;-81
2021/05/24 07:06:33;;;;;;;1.40;1.30;;;12.60;99.90;;;;;;5053102;28;20441;-81
2021/05/24 07:08:59;;;;;;;1.43;1.33;;;12.90;99.90;;;;;;5053018;28;20457;-81
2021/05/24 07:11:26;;;;;;;1.83;1.73;;;13.40;99.90;;;;;;5052773;28;20952;-81
2021/05/24 07:13:52;;;;;;;2.30;1.33;;;13.90;99.90;;;;;;5053055;28;20449;-81
2021/05/24 07:16:18;;;;;;;0.90;0.80;;;14.20;99.90;;;;;;5052947;28;20486;-80
2021/05/24 07:18:44;;;;;;;0.73;0.73;;;14.40;99.90;;;;;;5052990;28;20450;-77
2021/05/24 07:21:11;;;;;;;1.27;0.70;;;14.30;99.90;;;;;;5052980;28;20468;-81
2021/05/24 07:23:38;;;;;;;1.17;0.70;;;14.30;99.90;;;;;;5052937;28;20438;-81
2021/05/24 07:26:04;;;;;;;0.90;0.60;;;14.20;99.90;;;;;;5053506;28;20443;-81
2021/05/24 07:28:30;;;;;;;2.43;1.10;;;14.20;99.90;;;;;;5052925;28;20449;-81
2021/05/24 07:30:56;;;;;;;0.87;0.87;;;14.30;99.90;;;;;;5052353;28;21015;-81
2021/05/24 07:33:23;;;;;;;1.13;0.70;;;14.30;99.90;;;;;;5053117;28;20438;-81
2021/05/24 07:35:49;;;;;;;1.10;0.90;;;14.30;99.90;;;;;;5052780;28;20543;-81
2021/05/24 07:38:16;;;;;;;1.10;1.00;;;14.20;99.90;;;;;;5052855;28;20446;-80
2021/05/24 07:40:42;;;;;;;0.73;0.73;;;14.00;99.90;;;;;;5052742;28;20465;-81
2021/05/24 07:43:08;;;;;;;0.90;0.80;;;13.90;99.90;;;;;;5052772;28;20442;-81
2021/05/24 07:45:35;;;;;;;0.70;0.70;;;13.90;99.90;;;;;;5052748;28;20445;-80
2021/05/24 07:48:01;;;;;;;1.00;0.80;;;13.80;99.90;;;;;;5052367;28;20909;-81
2021/05/24 07:50:27;;;;;;;0.80;0.80;;;13.70;99.90;;;;;;5054329;28;20469;-81
2021/05/24 07:52:53;;;;;;;1.00;0.73;;;13.60;99.90;;;;;;5056089;28;20461;-81
2021/05/24 07:55:21;;;;;;;1.33;0.80;;;13.60;99.90;;;;;;5056301;28;20516;-77
2021/05/24 07:57:47;;;;;;;1.00;0.90;;;13.50;99.90;;;;;;5056055;28;20797;-80
2021/05/24 08:00:16;;;;;;;3.03;0.80;;;13.50;99.90;;;;;;5056384;28;20472;-81
2021/05/24 08:02:44;;;;;;;1.13;0.80;;;13.60;99.90;;;;;;5056231;28;20450;-81
2021/05/24 08:05:11;;;;;;;1.63;0.80;;;13.60;99.90;;;;;;5056137;28;20438;-81
2021/05/24 08:07:39;;;;;;;0.80;0.80;;;13.60;99.90;;;;;;5056647;28;20448;-77
2021/05/24 08:10:08;;;;;;;1.73;0.70;;;13.70;99.90;;;;;;5056029;28;20469;-77
2021/05/24 08:12:37;;;;;;;1.03;0.70;;;13.80;99.90;;;;;;5055734;28;20953;-77
2021/05/24 08:15:05;;;;;;;0.80;0.80;;;14.00;99.90;;;;;;5055883;28;20590;-78
2021/05/24 08:17:31;;;;;;;0.80;0.80;;;14.20;99.90;;;;;;5055712;28;20434;-78
2021/05/24 08:19:57;;;;;;;1.40;0.70;;;14.50;99.90;;;;;;5055568;28;20992;-78
2021/05/24 08:22:23;;;;;;;1.17;0.70;;;14.90;99.90;;;;;;5055851;28;20445;-78
2021/05/24 08:24:50;;;;;;;0.70;0.70;;;15.30;99.90;;;;;;5056348;28;20456;-78
2021/05/24 08:27:16;;;;;;;1.03;0.73;;;15.70;99.90;;;;;;5055781;28;20455;-81
2021/05/24 08:29:43;;;;;;;0.90;0.87;;;15.90;99.90;;;;;;5055637;28;20500;-81
2021/05/24 08:32:09;;;;;;;1.00;1.00;;;16.40;99.90;;;;;;5055471;28;20484;-81
2021/05/24 08:34:35;;;;;;;1.00;0.70;;;16.50;99.50;;;;;;5055554;28;20457;-80
2021/05/24 08:37:01;;;;;;;0.70;0.60;;;16.60;99.40;;;;;;5055699;28;20503;-80
2021/05/24 08:39:28;;;;;;;0.70;0.70;;;16.60;98.20;;;;;;5055154;28;20481;-80
2021/05/24 08:41:54;;;;;;;0.83;0.80;;;16.50;97.80;;;;;;5055493;28;20465;-80
2021/05/24 08:44:21;;;;;;;0.70;0.70;;;16.50;98.00;;;;;;5055465;28;20457;-78
2021/05/24 08:46:48;;;;;;;0.70;0.70;;;16.80;98.40;;;;;;5055411;28;20449;-78
2021/05/24 08:49:14;;;;;;;0.70;0.60;;;17.30;99.20;;;;;;5055303;28;20507;-78
2021/05/24 08:51:40;;;;;;;2.30;0.70;;;17.70;96.10;;;;;;5055328;28;20450;-78
2021/05/24 08:54:07;;;;;;;0.83;0.70;;;18.10;94.30;;;;;;5055267;28;20452;-77
2021/05/24 08:56:33;;;;;;;0.60;0.60;;;18.40;93.10;;;;;;5054845;28;21005;-77
2021/05/24 08:59:01;;;;;;;1.00;0.90;;;18.60;92.90;;;;;;5055303;28;20453;-78
2021/05/24 09:01:28;;;;;;;0.70;0.70;;;18.60;92.20;;;;;;5054848;28;20998;-79
2021/05/24 09:04:00;;;;;;;0.80;0.80;;;18.60;92.90;;;;;;5055245;28;20460;-79
2021/05/24 09:06:36;;;;;;;0.80;0.80;;;18.50;93.50;;;;;;5054989;28;20499;-78
2021/05/24 09:09:13;;;;;;;0.90;0.70;;;18.50;93.60;;;;;;5054896;28;20463;-79
2021/05/24 09:11:40;;;;;;;0.90;0.60;;;18.50;93.60;;;;;;5054987;28;20437;-79
2021/05/24 09:14:17;;;;;;;1.27;0.63;;;18.50;93.00;;;;;;5055652;28;20789;-80
2021/05/24 09:16:44;;;;;;;1.27;1.00;;;18.40;92.30;;;;;;5054826;28;20475;-81
2021/05/24 09:19:16;;;;;;;1.20;0.70;;;18.40;91.50;;;;;;5055239;28;20487;-77
2021/05/24 09:21:55;;;;;;;1.80;0.70;;;18.30;91.20;;;;;;5054444;28;20983;-78
2021/05/24 09:24:32;;;;;;;0.70;0.70;;;18.40;89.30;;;;;;5054475;28;20936;-80
2021/05/24 09:27:00;;;;;;;9.30;1.77;;;18.40;90.10;;;;;;5054409;28;20440;-80
2021/05/24 09:29:27;;;;;;;1.73;0.70;;;18.20;90.20;;;;;;5054549;28;20469;-80
2021/05/24 09:32:11;;;;;;;1.33;0.70;;;18.20;90.40;;;;;;5054264;28;20477;-79
2021/05/24 09:34:39;;;;;;;1.40;0.73;;;18.30;89.20;;;;;;5054480;28;20434;-78
2021/05/24 09:37:05;;;;;;;0.60;0.60;;;18.30;87.90;;;;;;5054418;28;20596;-78
2021/05/24 09:39:33;;;;;;;0.70;0.70;;;18.20;88.00;;;;;;5054346;28;20466;-78
2021/05/24 09:42:04;;;;;;;0.63;0.63;;;18.10;86.90;;;;;;5054053;28;20822;-78
2021/05/24 09:44:32;;;;;;;1.80;0.70;;;18.10;88.60;;;;;;5054382;28;20442;-78
2021/05/24 09:46:59;;;;;;;2.30;0.57;;;18.10;90.20;;;;;;5054281;28;20457;-78
2021/05/24 09:49:26;;;;;;;1.10;1.00;;;18.20;91.10;;;;;;5054092;28;20470;-77
2021/05/24 09:51:54;;;;;;;0.60;0.50;;;18.20;91.00;;;;;;5054218;28;20827;-77
2021/05/24 09:54:22;;;;;;;1.17;0.60;;;18.20;90.50;;;;;;5054101;28;20511;-78
2021/05/24 09:56:49;;;;;;;0.60;0.60;;;18.30;90.80;;;;;;5053985;28;20492;-77
2021/05/24 09:59:17;;;;;;;0.60;0.60;;;18.40;88.30;;;;;;5054006;28;20454;-77
2021/05/24 10:01:47;;;;;;;0.70;0.60;;;18.50;86.80;;;;;;5053971;28;20982;-80
2021/05/24 10:04:15;;;;;;;1.53;1.23;;;18.50;82.60;;;;;;5053862;28;20533;-78
2021/05/24 10:06:43;;;;;;;0.87;0.83;;;18.40;84.10;;;;;;5053905;28;20438;-77
2021/05/24 10:09:13;;;;;;;1.33;1.00;;;18.40;86.70;;;;;;5053789;28;20445;-77
2021/05/24 10:11:42;;;;;;;0.60;0.60;;;18.40;86.60;;;;;;5053573;28;20444;-80
2021/05/24 10:14:09;;;;;;;0.50;0.50;;;18.50;87.00;;;;;;5053194;28;20945;-81
2021/05/24 10:16:38;;;;;;;3.43;0.53;;;18.40;87.50;;;;;;5053633;28;20478;-81
2021/05/24 10:19:06;;;;;;;1.43;0.63;;;18.50;86.90;;;;;;5053331;28;20979;-81
2021/05/24 10:21:33;;;;;;;0.50;0.50;;;18.50;85.90;;;;;;5053324;28;20457;-79
2021/05/24 10:24:00;;;;;;;0.50;0.50;;;18.50;85.70;;;;;;5053832;28;20453;-78
2021/05/24 10:26:29;;;;;;;1.43;1.23;;;18.50;84.80;;;;;;5054255;28;20457;-79
2021/05/24 10:28:56;;;;;;;0.50;0.50;;;18.50;82.30;;;;;;5053591;28;20446;-81
2021/05/24 10:31:24;;;;;;;0.60;0.50;;;18.50;83.60;;;;;;5053117;28;20489;-80
2021/05/24 10:33:50;;;;;;;1.70;0.60;;;18.50;80.40;;;;;;5053446;28;20446;-81
2021/05/24 10:36:23;;;;;;;1.60;0.50;;;18.40;78.80;;;;;;5053095;28;20473;-81
2021/05/24 10:39:05;;;;;;;0.60;0.50;;;18.30;78.60;;;;;;5053451;28;20845;-81
2021/05/24 10:41:56;;;;;;;0.67;0.60;;;18.40;78.90;;;;;;5053199;28;20422;-81
2021/05/24 10:44:24;;;;;;;0.60;0.50;;;18.40;79.40;;;;;;5053432;28;20430;-81
2021/05/24 10:46:51;;;;;;;0.50;0.50;;;18.40;80.70;;;;;;5053829;28;20460;-81
2021/05/24 10:49:25;;;;;;;0.70;0.60;;;18.40;78.20;;;;;;5053169;28;20499;-81
2021/05/24 10:52:04;;;;;;;0.60;0.50;;;18.40;78.00;;;;;;5053297;28;20441;-81
2021/05/24 10:54:42;;;;;;;0.60;0.50;;;18.40;76.30;;;;;;5052990;28;20917;-81
2021/05/24 10:57:17;;;;;;;0.60;0.60;;;18.40;75.90;;;;;;5053234;28;20833;-81
2021/05/24 10:59:58;;;;;;;0.80;0.50;;;18.30;73.10;;;;;;5053155;28;20469;-81
2021/05/24 11:02:38;;;;;;;1.17;0.97;;;18.30;74.30;;;;;;5052888;28;20901;-80
2021/05/24 11:05:07;;;;;;;1.17;0.60;;;18.30;77.50;;;;;;5052956;28;20949;-80
2021/05/24 11:07:35;;;;;;;0.57;0.50;;;18.40;78.00;;;;;;5053116;28;20450;-80
2021/05/24 11:10:22;;;;;;;1.20;0.60;;;18.40;78.70;;;;;;5053260;28;20512;-80
2021/05/24 11:12:51;;;;;;;0.50;0.50;;;18.40;77.10;;;;;;5053231;28;20446;-80
2021/05/24 11:15:19;;;;;;;0.93;0.47;;;18.40;77.20;;;;;;5053003;28;20480;-76
2021/05/24 11:18:16;;;;;;;0.47;0.40;;;18.60;74.70;;;;;;5052973;28;20461;-77
2021/05/24 11:20:47;;;;;;;1.77;0.50;;;18.70;75.30;;;;;;5052914;28;20470;-77
2021/05/24 11:23:29;;;;;;;0.70;0.50;;;18.90;69.60;;;;;;5052716;28;20909;-81
2021/05/24 11:26:14;;;;;;;0.80;0.40;;;19.10;72.90;;;;;;5055527;28;20797;-80
2021/05/24 11:28:42;;;;;;;0.50;0.50;;;19.20;69.20;;;;;;5056556;28;20910;-80
2021/05/24 11:31:11;;;;;;;0.50;0.50;;;19.20;64.40;;;;;;5056462;28;20875;-77
2021/05/24 11:33:53;;;;;;;0.80;0.50;;;19.30;65.80;;;;;;5056802;28;20457;-76
2021/05/24 11:36:21;;;;;;;0.60;0.50;;;19.60;66.70;;;;;;5056744;28;20466;-76
2021/05/24 11:39:03;;;;;;;0.60;0.50;;;19.60;65.00;;;;;;5056361;28;20945;-77
2021/05/24 11:41:31;;;;;;;0.60;0.60;;;19.70;64.30;;;;;;5056462;28;20945;-81
2021/05/24 11:44:00;;;;;;;0.50;0.50;;;19.70;64.20;;;;;;5056750;28;20460;-80
2021/05/24 11:46:27;;;;;;;0.53;0.53;;;19.70;62.60;;;;;;5056580;28;20442;-80
2021/05/24 11:48:54;;;;;;;0.57;0.50;;;19.70;63.90;;;;;;5056549;28;20449;-80
2021/05/24 11:51:33;;;;;;;0.60;0.60;;;19.80;65.80;;;;;;5056500;28;20473;-80
2021/05/24 11:54:01;;;;;;;0.70;0.70;;;19.90;64.90;;;;;;5056606;28;20442;-80
2021/05/24 11:56:39;;;;;;;0.50;0.50;;;20.00;61.30;;;;;;5056105;28;20485;-80
2021/05/24 11:59:08;;;;;;;0.60;0.60;;;20.10;63.40;;;;;;5056329;28;20479;-79
2021/05/24 12:01:35;;;;;;;0.60;0.60;;;20.00;61.30;;;;;;5056308;28;20449;-80
2021/05/24 12:04:06;;;;;;;0.50;0.50;;;20.10;61.30;;;;;;5056448;28;20797;-80
2021/05/24 12:06:44;;;;;;;0.57;0.50;;;20.10;61.90;;;;;;5056599;28;20442;-77
2021/05/24 12:09:12;;;;;;;0.50;0.50;;;20.00;58.10;;;;;;5056709;28;20425;-76
2021/05/24 12:11:54;;;;;;;1.27;0.60;;;19.90;58.00;;;;;;5056087;28;20511;-76
2021/05/24 12:14:21;;;;;;;0.50;0.50;;;19.80;59.80;;;;;;5056111;28;20440;-77
2021/05/24 12:16:47;;;;;;;1.23;0.50;;;19.80;57.30;;;;;;5055922;28;20492;-77
2021/05/24 12:19:19;;;;;;;1.23;0.50;;;19.70;56.90;;;;;;5055890;28;20511;-76
2021/05/24 12:21:45;;;;;;;1.00;0.60;;;19.60;56.10;;;;;;5055966;28;20436;-76
2021/05/24 12:24:13;;;;;;;0.80;0.60;;;19.40;57.50;;;;;;5055818;28;20442;-77
2021/05/24 12:26:47;;;;;;;0.70;0.60;;;19.20;59.00;;;;;;5056060;28;20472;-76
2021/05/24 12:29:18;;;;;;;0.90;0.40;;;19.10;59.90;;;;;;5055737;28;20425;-76
2021/05/24 12:31:47;;;;;;;0.70;0.70;;;19.00;62.30;;;;;;5055579;28;20481;-76
2021/05/24 12:34:14;;;;;;;0.60;0.57;;;19.10;64.00;;;;;;5055666;28;20449;-76
2021/05/24 12:36:44;;;;;;;0.57;0.53;;;19.10;62.50;;;;;;5055114;28;20477;-77
2021/05/24 12:39:11;;;;;;;0.60;0.60;;;19.00;62.30;;;;;;5055960;28;20501;-76
2021/05/24 12:41:38;;;;;;;0.60;0.60;;;18.90;62.00;;;;;;5055217;28;20446;-76
2021/05/24 12:44:07;;;;;;;1.13;0.60;;;18.90;63.20;;;;;;5055197;28;20457;-76
2021/05/24 12:46:40;;;;;;;0.57;0.53;;;18.80;63.00;;;;;;5055425;28;20442;-76
2021/05/24 12:49:08;;;;;;;0.60;0.60;;;18.80;64.00;;;;;;5055398;28;20430;-76
2021/05/24 12:51:35;;;;;;;1.17;0.70;;;18.70;63.50;;;;;;5055340;28;20456;-77
2021/05/24 12:54:03;;;;;;;2.00;0.60;;;18.70;65.60;;;;;;5055337;28;20528;-76